Harrisville, MI

2:54 PM EST on December 27, 2014 (GMT -0500)
Alpena County Regional | Change Station
CLOSE
Current Station
Airport
Location: Alpena,
Elevation: 689 ft
Nearby Weather Stations

Elev 689 ft 45.07 °N, 83.56 °W | Updated 1 hour ago

Overcast
Overcast
46 °F
Feels Like 39 °F
N
21
Wind Variable Wind from SSW
Gusts 29 mph

Today
High -- | Low -- °F
--% Chance of Precip.
Yesterday
High -- | Low -- °F
Precip. -- in
8:09 AM 4:59 PM
Waxing Crescent, 39% visible
Pressure 29.72 in
Visibility 10.0 miles
Clouds Overcast 1100 ft
Windchill 39 °F
Dew Point 43 °F
Humidity 87%
Rainfall 0.00 in
Snow Depth Not available.
UV 0 out of 12
Pollen .10 out of 12
Air Quality Not available.
Flu Activity Not available.
METAR KAPN 271854Z AUTO 21018G25KT 10SM OVC011 08/06 A2972

More Conditions Fewer Conditions

Pressure 29.72 in
Visibility 10.0 miles
Clouds Overcast 1100 ft
Windchill 39 °F
Dew Point 43 °F
Humidity 87%
Rainfall 0.00 in
Snow Depth Not available.
UV 0 out of 12
Pollen .10 out of 12
Air Quality Not available.
Flu Activity Not available.
METAR KAPN 271854Z AUTO 21018G25KT 10SM OVC011 08/06 A2972

More Conditions Fewer Conditions

Nowcast | as of 2:00 PM EST on December 27, 2014

At 3 PM...cloudy. Areas of fog. Chance of showers. Temperature 42. Southwest winds 15 mph. At 5 PM...cloudy. Areas of fog. Chance of showers. Temperature 42. Southwest winds 15 mph. At 7 PM...cloudy. Temperature 40. West winds 16 mph. At 9 PM...mostly cloudy. Temperature 37. West winds 15 mph.

×

10-Day Weather Forecast

Almanac

Astronomy

Dec. 27, 2014 Rise Set
Actual Time
Civil Twilight
Nautical Twilight
Astronomical Twilight
Moon
Length of Visible Light
Length of Day
Tomorrow will be .
, % of the Moon is Illuminated

Today's Extremes

State Highs State Lows

Community

WunderPhotos

Upload Photos

1,781,028 photos uploaded!

WunderBlogs® & News

Nearby

Air Quality

  Air Quality AQ Index Pollutant
Not available.

Snow Depth

Station Depth Elevation

Earthquake Activity

City Distance Mag. Time & Date
Minimum magnitude displayed is 2.5.

Coastal Water Temperatures

Place Temperature

Nearby Weather Stations